createdAt,value
2023-01-13T00:00:31.524Z,6.15
2023-01-13T00:05:36.215Z,6.28
2023-01-13T00:10:39.423Z,5.85
2023-01-13T00:15:42.327Z,5.82
2023-01-13T00:20:46.588Z,5.65
2023-01-13T00:25:49.327Z,5.57
2023-01-13T00:30:52.343Z,5.30
2023-01-13T00:36:01.071Z,5.13
2023-01-13T00:41:05.463Z,5.20
2023-01-13T00:46:10.064Z,5.18
2023-01-13T00:51:17.068Z,4.88
2023-01-13T00:56:30.561Z,4.45
2023-01-13T01:01:41.712Z,4.60
2023-01-13T01:06:45.947Z,4.93
2023-01-13T01:11:48.754Z,4.65
2023-01-13T01:16:51.680Z,4.70
2023-01-13T01:21:55.913Z,4.82
2023-01-13T01:26:58.725Z,4.28
2023-01-13T01:32:01.510Z,4.53
2023-01-13T01:37:05.804Z,4.57
2023-01-13T01:42:28.223Z,4.03
2023-01-13T01:47:32.389Z,4.07
2023-01-13T01:52:38.783Z,4.30
2023-01-13T01:57:45.357Z,4.50
2023-01-13T02:02:49.628Z,3.90
2023-01-13T02:07:56.148Z,4.35
2023-01-13T02:13:01.229Z,4.00
2023-01-13T02:18:27.327Z,3.95
2023-01-13T02:24:17.070Z,3.97
2023-01-13T02:30:12.715Z,3.97
2023-01-13T02:35:21.449Z,4.35
2023-01-13T02:40:27.193Z,3.85
2023-01-13T02:45:33.522Z,3.92
2023-01-13T02:50:40.554Z,3.90
2023-01-13T02:55:46.486Z,3.38
2023-01-13T03:00:50.579Z,3.80
2023-01-13T03:05:55.391Z,3.70
2023-01-13T03:11:03.757Z,3.35
2023-01-13T03:16:12.875Z,3.72
2023-01-13T03:21:21.168Z,3.92
2023-01-13T03:26:33.076Z,3.63
2023-01-13T03:31:42.380Z,3.00
2023-01-13T03:36:45.348Z,3.08
2023-01-13T03:41:52.977Z,3.30
2023-01-13T03:47:04.274Z,3.00
2023-01-13T03:52:09.828Z,3.08
2023-01-13T03:57:15.684Z,3.20
2023-01-13T04:02:23.630Z,3.38
2023-01-13T04:07:34.038Z,3.13
2023-01-13T04:12:53.624Z,2.80
2023-01-13T04:18:03.315Z,2.67
2023-01-13T04:23:05.968Z,2.67
2023-01-13T04:28:08.824Z,2.70
2023-01-13T04:33:13.564Z,2.88
2023-01-13T04:38:18.577Z,2.88
2023-01-13T04:43:21.248Z,3.17
2023-01-13T04:48:25.315Z,2.67
2023-01-13T04:53:27.965Z,2.58
2023-01-13T04:58:30.609Z,2.53
2023-01-13T05:03:34.679Z,2.70
2023-01-13T05:08:37.478Z,2.38
2023-01-13T05:13:57.685Z,2.30
2023-01-13T05:19:01.720Z,2.28
2023-01-13T05:24:22.131Z,2.35
2023-01-13T05:29:24.888Z,2.70
2023-01-13T05:34:28.976Z,2.28
2023-01-13T05:39:51.951Z,2.58
2023-01-13T05:44:54.624Z,2.25
2023-01-13T05:49:58.665Z,2.15
2023-01-13T05:55:01.321Z,2.00
2023-01-13T06:00:04.743Z,2.33
2023-01-13T06:05:15.787Z,2.20
2023-01-13T06:10:18.815Z,2.25
2023-01-13T06:15:22.022Z,2.13
2023-01-13T06:20:26.453Z,1.92
2023-01-13T06:25:39.518Z,2.20
2023-01-13T06:30:44.441Z,1.73
2023-01-13T06:35:52.405Z,2.00
2023-01-13T06:40:55.386Z,2.15
2023-01-13T06:45:58.125Z,2.00
2023-01-13T06:51:02.147Z,1.83
2023-01-13T06:56:04.998Z,2.20
2023-01-13T07:01:07.870Z,1.80
2023-01-13T07:06:12.019Z,1.75
2023-01-13T07:11:14.767Z,1.85
2023-01-13T07:16:17.517Z,1.60
2023-01-13T07:21:22.042Z,1.80
2023-01-13T07:26:24.738Z,1.60
2023-01-13T07:31:27.552Z,1.80
2023-01-13T07:36:31.711Z,1.67
2023-01-13T07:41:52.212Z,1.50
2023-01-13T07:46:54.861Z,1.55
2023-01-13T07:51:58.871Z,1.50
2023-01-13T07:57:01.580Z,1.60
2023-01-13T08:02:04.471Z,1.60
2023-01-13T08:07:08.676Z,1.30
2023-01-13T08:12:29.059Z,1.30
2023-01-13T08:17:31.804Z,1.63
2023-01-13T08:22:35.882Z,1.40
2023-01-13T08:27:39.868Z,1.40
2023-01-13T08:32:44.766Z,1.25
2023-01-13T08:37:49.172Z,1.60
2023-01-13T08:42:53.803Z,1.42
2023-01-13T08:47:57.932Z,1.60
2023-01-13T08:53:02.090Z,1.00
2023-01-13T08:58:15.274Z,1.38
2023-01-13T09:03:18.688Z,1.52
2023-01-13T09:08:22.708Z,1.20
2023-01-13T09:13:25.570Z,1.48
2023-01-13T09:18:28.283Z,1.27
2023-01-13T09:23:32.338Z,1.23
2023-01-13T09:28:35.005Z,1.38
2023-01-13T09:34:06.785Z,1.30
2023-01-13T09:39:10.818Z,1.40
2023-01-13T09:44:18.912Z,1.48
2023-01-13T09:49:23.904Z,1.40
2023-01-13T09:54:33.030Z,1.20
2023-01-13T09:59:36.819Z,1.30
2023-01-13T10:04:39.609Z,1.13
2023-01-13T10:09:48.938Z,1.20
2023-01-13T10:14:54.291Z,1.20
2023-01-13T10:20:00.200Z,1.10
2023-01-13T10:25:20.902Z,1.10
2023-01-13T10:30:31.043Z,1.25
2023-01-13T10:35:53.657Z,1.20
2023-01-13T10:40:59.459Z,1.05
2023-01-13T10:46:05.718Z,1.30
2023-01-13T10:51:23.226Z,1.40
2023-01-13T10:56:30.905Z,1.20
2023-01-13T11:01:33.647Z,1.35
2023-01-13T11:06:37.599Z,1.10
2023-01-13T11:11:44.766Z,1.20
2023-01-13T11:16:53.788Z,1.25
2023-01-13T11:22:01.775Z,1.08
2023-01-13T11:27:09.389Z,1.20
2023-01-13T11:32:14.441Z,1.30
2023-01-13T11:37:20.206Z,1.10
2023-01-13T11:42:27.666Z,1.02
2023-01-13T11:47:30.788Z,1.00
2023-01-13T11:52:46.897Z,1.05
2023-01-13T11:58:18.129Z,1.00
2023-01-13T12:03:25.860Z,0.93
2023-01-13T12:08:47.045Z,1.08
2023-01-13T12:14:02.317Z,1.00
2023-01-13T12:19:18.186Z,1.15
2023-01-13T12:24:27.095Z,1.30
2023-01-13T12:29:34.138Z,1.13
2023-01-13T12:34:46.625Z,1.05
2023-01-13T12:40:05.670Z,1.10
2023-01-13T12:45:22.357Z,0.95
2023-01-13T12:50:42.238Z,1.30
2023-01-13T12:55:45.062Z,1.05
2023-01-13T13:01:13.720Z,1.00
2023-01-13T13:06:19.859Z,1.10
2023-01-13T13:11:56.115Z,1.38
2023-01-13T13:17:01.056Z,1.10
2023-01-13T13:22:43.918Z,0.90
2023-01-13T13:27:49.898Z,1.20
2023-01-13T13:33:14.548Z,1.15
2023-01-13T13:38:42.963Z,1.00
2023-01-13T13:44:06.626Z,1.90
2023-01-13T13:49:11.783Z,1.35
2023-01-13T13:54:16.327Z,1.48
2023-01-13T13:59:21.056Z,1.58
2023-01-13T14:04:26.502Z,1.30
2023-01-13T14:09:39.651Z,1.70
2023-01-13T14:14:44.611Z,1.20
2023-01-13T14:19:54.238Z,1.23
2023-01-13T14:24:58.404Z,1.35
2023-01-13T14:30:01.933Z,1.30
2023-01-13T14:35:09.045Z,1.30
2023-01-13T14:40:45.513Z,1.15
2023-01-13T14:45:57.079Z,1.70
2023-01-13T14:51:02.601Z,1.35
2023-01-13T14:56:40.532Z,1.35
2023-01-13T15:01:43.621Z,1.50
2023-01-13T15:06:52.479Z,1.38
2023-01-13T15:11:56.330Z,1.60
2023-01-13T15:16:59.096Z,1.30
2023-01-13T15:22:03.285Z,1.67
2023-01-13T15:27:17.731Z,1.30
2023-01-13T15:32:21.636Z,1.83
2023-01-13T15:37:25.704Z,1.30
2023-01-13T15:42:45.978Z,1.40
2023-01-13T15:47:48.686Z,1.52
2023-01-13T15:52:52.816Z,1.30
2023-01-13T15:57:55.515Z,1.52
2023-01-13T16:02:59.712Z,1.45
2023-01-13T16:08:03.820Z,1.38
2023-01-13T16:13:06.519Z,1.40
2023-01-13T16:18:15.865Z,1.17
2023-01-13T16:23:20.808Z,1.48
2023-01-13T16:28:26.725Z,1.13
2023-01-13T16:33:29.658Z,1.40
2023-01-13T16:38:33.750Z,1.50
2023-01-13T16:43:36.818Z,1.58
2023-01-13T16:48:39.710Z,1.27
2023-01-13T16:53:43.889Z,1.40
2023-01-13T16:58:47.034Z,1.40
2023-01-13T17:03:51.433Z,1.58
2023-01-13T17:08:57.489Z,1.10
2023-01-13T17:14:00.707Z,1.50
2023-01-13T17:19:18.347Z,1.60
2023-01-13T17:24:25.978Z,1.67
2023-01-13T17:29:29.532Z,1.40
2023-01-13T17:34:32.574Z,1.25
2023-01-13T17:39:37.917Z,1.35
2023-01-13T17:44:41.766Z,1.40
2023-01-13T17:49:44.456Z,1.60
2023-01-13T17:54:48.661Z,1.30
2023-01-13T17:59:51.563Z,1.60
2023-01-13T18:04:54.298Z,1.60
2023-01-13T18:09:58.411Z,1.60
2023-01-13T18:15:01.136Z,2.25
2023-01-13T18:20:21.428Z,2.10
2023-01-13T18:25:43.213Z,2.22
2023-01-13T18:30:46.006Z,2.00
2023-01-13T18:35:48.913Z,1.95
2023-01-13T18:40:53.055Z,2.35
2023-01-13T18:45:55.929Z,1.95
2023-01-13T18:50:58.711Z,1.70
2023-01-13T18:56:05.455Z,1.98
2023-01-13T19:01:37.043Z,1.95
2023-01-13T19:06:47.633Z,1.70
2023-01-13T19:11:51.964Z,2.08
2023-01-13T19:16:54.731Z,2.10
2023-01-13T19:21:57.518Z,1.83
2023-01-13T19:27:01.695Z,2.00
2023-01-13T19:32:06.033Z,1.98
2023-01-13T19:37:09.055Z,2.15
2023-01-13T19:42:31.134Z,1.95
2023-01-13T19:47:34.060Z,1.85
2023-01-13T19:52:36.791Z,2.13
2023-01-13T19:57:41.144Z,2.20
2023-01-13T20:02:48.947Z,1.92
2023-01-13T20:07:51.933Z,2.08
2023-01-13T20:12:56.055Z,2.70
2023-01-13T20:18:00.445Z,2.50
2023-01-13T20:23:03.165Z,2.70
2023-01-13T20:28:07.356Z,2.35
2023-01-13T20:33:10.095Z,2.33
2023-01-13T20:38:13.007Z,2.30
2023-01-13T20:43:17.754Z,2.40
2023-01-13T20:48:20.805Z,2.47
2023-01-13T20:53:23.541Z,2.20
2023-01-13T20:58:27.601Z,2.47
2023-01-13T21:03:30.432Z,2.50
2023-01-13T21:08:33.193Z,2.80
2023-01-13T21:13:54.938Z,2.40
2023-01-13T21:19:10.660Z,2.53
2023-01-13T21:24:13.962Z,2.28
2023-01-13T21:29:18.063Z,2.95
2023-01-13T21:34:20.893Z,2.60
2023-01-13T21:39:23.629Z,2.75
2023-01-13T21:44:45.214Z,2.72
2023-01-13T21:49:47.937Z,3.40
2023-01-13T21:55:08.146Z,2.70
2023-01-13T22:00:13.717Z,3.38
2023-01-13T22:05:18.801Z,3.00
2023-01-13T22:10:23.484Z,3.03
2023-01-13T22:15:30.577Z,2.63
2023-01-13T22:20:33.305Z,3.10
2023-01-13T22:25:36.054Z,2.90
2023-01-13T22:30:40.288Z,2.75
2023-01-13T22:35:42.970Z,3.10
2023-01-13T22:40:45.650Z,2.63
2023-01-13T22:45:58.663Z,2.65
2023-01-13T22:51:05.583Z,2.60
2023-01-13T22:56:08.937Z,2.33
2023-01-13T23:01:14.409Z,2.63
2023-01-13T23:06:18.626Z,2.67
2023-01-13T23:11:23.448Z,2.75
2023-01-13T23:16:28.809Z,2.78
2023-01-13T23:21:33.253Z,2.50
2023-01-13T23:26:36.414Z,2.33
2023-01-13T23:31:41.018Z,2.70
2023-01-13T23:36:44.436Z,2.63
2023-01-13T23:41:47.205Z,2.30
2023-01-13T23:46:51.240Z,2.10
2023-01-13T23:51:54.153Z,2.33
2023-01-13T23:56:57.324Z,2.22
